sensor_id;sensor_type;location;lat;lon;timestamp;pressure;altitude;pressure_sealevel;temperature;humidity
64551;BME280;50945;44.472;-123.352;2023-02-28T00:01:20;98421.84;;;5.72;86.89
64551;BME280;50945;44.472;-123.352;2023-02-28T00:03:46;98420.75;;;5.66;85.84
64551;BME280;50945;44.472;-123.352;2023-02-28T00:06:13;98400.91;;;5.59;85.04
64551;BME280;50945;44.472;-123.352;2023-02-28T00:08:40;98393.22;;;5.56;85.24
64551;BME280;50945;44.472;-123.352;2023-02-28T00:11:10;98407.97;;;5.53;85.65
64551;BME280;50945;44.472;-123.352;2023-02-28T00:13:39;98398.78;;;5.48;85.39
64551;BME280;50945;44.472;-123.352;2023-02-28T00:16:11;98393.56;;;5.46;86.21
64551;BME280;50945;44.472;-123.352;2023-02-28T00:18:39;98396.84;;;5.35;84.70
64551;BME280;50945;44.472;-123.352;2023-02-28T00:21:06;98400.50;;;5.27;85.39
64551;BME280;50945;44.472;-123.352;2023-02-28T00:23:33;98402.16;;;5.22;86.04
64551;BME280;50945;44.472;-123.352;2023-02-28T00:25:59;98405.69;;;5.22;86.12
64551;BME280;50945;44.472;-123.352;2023-02-28T00:28:25;98411.06;;;5.16;85.90
64551;BME280;50945;44.472;-123.352;2023-02-28T00:30:52;98408.31;;;5.09;85.73
64551;BME280;50945;44.472;-123.352;2023-02-28T00:33:18;98409.75;;;5.05;85.78
64551;BME280;50945;44.472;-123.352;2023-02-28T00:35:45;98406.78;;;5.00;85.93
64551;BME280;50945;44.472;-123.352;2023-02-28T00:38:13;98417.19;;;4.96;85.90
64551;BME280;50945;44.472;-123.352;2023-02-28T00:40:40;98421.50;;;4.90;85.26
64551;BME280;50945;44.472;-123.352;2023-02-28T00:43:07;98413.78;;;4.87;85.35
64551;BME280;50945;44.472;-123.352;2023-02-28T00:45:33;98414.97;;;4.85;85.25
64551;BME280;50945;44.472;-123.352;2023-02-28T00:48:00;98415.66;;;4.87;85.38
64551;BME280;50945;44.472;-123.352;2023-02-28T00:50:26;98416.09;;;4.90;85.86
64551;BME280;50945;44.472;-123.352;2023-02-28T00:52:52;98416.28;;;4.89;85.36
64551;BME280;50945;44.472;-123.352;2023-02-28T00:55:18;98406.03;;;4.84;84.94
64551;BME280;50945;44.472;-123.352;2023-02-28T00:57:45;98413.72;;;4.81;84.91
64551;BME280;50945;44.472;-123.352;2023-02-28T01:00:12;98421.84;;;4.81;85.50
64551;BME280;50945;44.472;-123.352;2023-02-28T01:02:38;98419.13;;;4.81;85.40
64551;BME280;50945;44.472;-123.352;2023-02-28T01:05:04;98418.66;;;4.77;85.15
64551;BME280;50945;44.472;-123.352;2023-02-28T01:07:31;98427.59;;;4.71;84.66
64551;BME280;50945;44.472;-123.352;2023-02-28T01:09:57;98430.03;;;4.66;84.82
64551;BME280;50945;44.472;-123.352;2023-02-28T01:12:23;98431.25;;;4.63;85.08
64551;BME280;50945;44.472;-123.352;2023-02-28T01:14:50;98424.75;;;4.57;84.52
64551;BME280;50945;44.472;-123.352;2023-02-28T01:17:16;98438.00;;;4.52;84.08
64551;BME280;50945;44.472;-123.352;2023-02-28T01:19:42;98441.88;;;4.43;84.21
64551;BME280;50945;44.472;-123.352;2023-02-28T01:22:08;98439.09;;;4.36;84.75
64551;BME280;50945;44.472;-123.352;2023-02-28T01:24:35;98443.84;;;4.34;85.66
64551;BME280;50945;44.472;-123.352;2023-02-28T01:27:01;98447.97;;;4.30;85.28
64551;BME280;50945;44.472;-123.352;2023-02-28T01:29:27;98448.34;;;4.27;85.13
64551;BME280;50945;44.472;-123.352;2023-02-28T01:31:53;98455.38;;;4.22;85.14
64551;BME280;50945;44.472;-123.352;2023-02-28T01:34:20;98450.91;;;4.14;85.33
64551;BME280;50945;44.472;-123.352;2023-02-28T01:36:46;98446.25;;;4.08;85.18
64551;BME280;50945;44.472;-123.352;2023-02-28T01:39:12;98444.31;;;4.02;85.26
64551;BME280;50945;44.472;-123.352;2023-02-28T01:41:39;98438.47;;;3.98;85.58
64551;BME280;50945;44.472;-123.352;2023-02-28T01:44:55;98457.09;;;3.93;85.35
64551;BME280;50945;44.472;-123.352;2023-02-28T01:46:53;98469.50;;;3.87;85.63
64551;BME280;50945;44.472;-123.352;2023-02-28T01:49:20;98471.72;;;3.84;85.72
64551;BME280;50945;44.472;-123.352;2023-02-28T01:51:49;98487.47;;;3.80;85.86
64551;BME280;50945;44.472;-123.352;2023-02-28T01:54:22;98479.94;;;3.75;86.09
64551;BME280;50945;44.472;-123.352;2023-02-28T01:56:51;98486.09;;;3.69;85.37
64551;BME280;50945;44.472;-123.352;2023-02-28T01:59:27;98491.88;;;3.66;86.03
64551;BME280;50945;44.472;-123.352;2023-02-28T02:01:56;98487.69;;;3.64;86.37
64551;BME280;50945;44.472;-123.352;2023-02-28T02:04:24;98481.97;;;3.58;86.58
64551;BME280;50945;44.472;-123.352;2023-02-28T02:06:53;98489.81;;;3.53;86.76
64551;BME280;50945;44.472;-123.352;2023-02-28T02:09:19;98493.53;;;3.52;86.50
64551;BME280;50945;44.472;-123.352;2023-02-28T02:11:46;98489.81;;;3.53;87.06
64551;BME280;50945;44.472;-123.352;2023-02-28T02:23:20;98522.38;;;3.37;89.00
64551;BME280;50945;44.472;-123.352;2023-02-28T02:28:43;98535.88;;;3.22;89.24
64551;BME280;50945;44.472;-123.352;2023-02-28T02:34:31;98544.81;;;2.99;89.63
64551;BME280;50945;44.472;-123.352;2023-02-28T02:40:22;98524.59;;;2.72;89.14
64551;BME280;50945;44.472;-123.352;2023-02-28T02:45:46;98524.44;;;2.42;89.99
64551;BME280;50945;44.472;-123.352;2023-02-28T02:48:19;98530.91;;;2.33;90.90
64551;BME280;50945;44.472;-123.352;2023-02-28T02:50:54;98535.97;;;2.28;91.84
64551;BME280;50945;44.472;-123.352;2023-02-28T02:53:27;98530.94;;;2.25;91.80
64551;BME280;50945;44.472;-123.352;2023-02-28T02:55:55;98533.81;;;2.23;91.73
64551;BME280;50945;44.472;-123.352;2023-02-28T02:58:28;98540.22;;;2.22;92.04
64551;BME280;50945;44.472;-123.352;2023-02-28T03:01:00;98545.78;;;2.21;92.55
64551;BME280;50945;44.472;-123.352;2023-02-28T03:03:29;98544.28;;;2.18;92.90
64551;BME280;50945;44.472;-123.352;2023-02-28T03:05:59;98546.31;;;2.16;92.77
64551;BME280;50945;44.472;-123.352;2023-02-28T03:08:27;98542.94;;;2.14;92.63
64551;BME280;50945;44.472;-123.352;2023-02-28T03:11:01;98531.34;;;2.14;92.82
64551;BME280;50945;44.472;-123.352;2023-02-28T03:16:34;98524.97;;;2.06;93.34
64551;BME280;50945;44.472;-123.352;2023-02-28T03:24:27;98535.09;;;1.96;92.94
64551;BME280;50945;44.472;-123.352;2023-02-28T03:27:21;98522.13;;;1.92;93.31
64551;BME280;50945;44.472;-123.352;2023-02-28T03:35:26;98508.00;;;1.89;94.23
64551;BME280;50945;44.472;-123.352;2023-02-28T03:38:00;98508.84;;;1.90;93.49
64551;BME280;50945;44.472;-123.352;2023-02-28T03:40:33;98522.50;;;1.88;94.26
64551;BME280;50945;44.472;-123.352;2023-02-28T03:43:04;98517.13;;;1.88;93.52
64551;BME280;50945;44.472;-123.352;2023-02-28T03:45:36;98518.78;;;1.89;93.59
64551;BME280;50945;44.472;-123.352;2023-02-28T03:48:13;98518.28;;;1.86;95.05
64551;BME280;50945;44.472;-123.352;2023-02-28T03:50:44;98517.81;;;1.82;94.03
64551;BME280;50945;44.472;-123.352;2023-02-28T03:56:21;98508.25;;;1.71;94.28
64551;BME280;50945;44.472;-123.352;2023-02-28T03:58:57;98503.19;;;1.68;94.63
64551;BME280;50945;44.472;-123.352;2023-02-28T04:01:41;98500.66;;;1.67;94.11
64551;BME280;50945;44.472;-123.352;2023-02-28T04:04:09;98495.66;;;1.64;94.16
64551;BME280;50945;44.472;-123.352;2023-02-28T04:06:35;98490.94;;;1.58;95.86
64551;BME280;50945;44.472;-123.352;2023-02-28T04:09:03;98477.84;;;1.55;94.36
64551;BME280;50945;44.472;-123.352;2023-02-28T04:15:07;98491.13;;;1.48;94.52
64551;BME280;50945;44.472;-123.352;2023-02-28T04:17:33;98492.47;;;1.44;96.66
64551;BME280;50945;44.472;-123.352;2023-02-28T04:19:59;98487.47;;;1.41;95.11
64551;BME280;50945;44.472;-123.352;2023-02-28T04:22:26;98489.28;;;1.40;95.41
64551;BME280;50945;44.472;-123.352;2023-02-28T04:24:52;98487.63;;;1.39;95.13
64551;BME280;50945;44.472;-123.352;2023-02-28T04:27:21;98478.50;;;1.40;95.72
64551;BME280;50945;44.472;-123.352;2023-02-28T04:29:47;98484.59;;;1.42;95.74
64551;BME280;50945;44.472;-123.352;2023-02-28T04:32:16;98483.72;;;1.42;97.28
64551;BME280;50945;44.472;-123.352;2023-02-28T04:34:45;98492.84;;;1.41;96.63
64551;BME280;50945;44.472;-123.352;2023-02-28T04:37:13;98500.25;;;1.39;97.48
64551;BME280;50945;44.472;-123.352;2023-02-28T04:39:40;98509.16;;;1.39;96.00
64551;BME280;50945;44.472;-123.352;2023-02-28T04:42:09;98509.34;;;1.38;96.74
64551;BME280;50945;44.472;-123.352;2023-02-28T04:44:35;98516.06;;;1.33;98.67
64551;BME280;50945;44.472;-123.352;2023-02-28T04:47:01;98515.59;;;1.30;97.27
64551;BME280;50945;44.472;-123.352;2023-02-28T04:49:28;98533.22;;;1.24;97.37
64551;BME280;50945;44.472;-123.352;2023-02-28T04:51:54;98548.38;;;1.17;95.32
64551;BME280;50945;44.472;-123.352;2023-02-28T04:54:21;98561.53;;;1.12;95.79
64551;BME280;50945;44.472;-123.352;2023-02-28T04:56:47;98579.00;;;1.08;95.92
64551;BME280;50945;44.472;-123.352;2023-02-28T04:59:15;98584.69;;;1.05;96.00
64551;BME280;50945;44.472;-123.352;2023-02-28T05:01:46;98594.97;;;1.01;96.13
64551;BME280;50945;44.472;-123.352;2023-02-28T05:04:13;98612.44;;;0.97;96.06
64551;BME280;50945;44.472;-123.352;2023-02-28T05:06:39;98607.25;;;0.87;94.60
64551;BME280;50945;44.472;-123.352;2023-02-28T05:09:07;98609.56;;;0.74;95.40
64551;BME280;50945;44.472;-123.352;2023-02-28T05:11:34;98614.22;;;0.64;96.10
64551;BME280;50945;44.472;-123.352;2023-02-28T05:14:02;98626.13;;;0.53;96.01
64551;BME280;50945;44.472;-123.352;2023-02-28T05:16:29;98613.66;;;0.44;96.40
64551;BME280;50945;44.472;-123.352;2023-02-28T05:18:57;98593.50;;;0.40;96.17
64551;BME280;50945;44.472;-123.352;2023-02-28T05:21:32;98610.25;;;0.33;96.65
64551;BME280;50945;44.472;-123.352;2023-02-28T05:24:03;98625.34;;;0.26;96.40
64551;BME280;50945;44.472;-123.352;2023-02-28T05:26:30;98644.97;;;0.18;95.97
64551;BME280;50945;44.472;-123.352;2023-02-28T05:28:57;98632.69;;;0.16;96.36
64551;BME280;50945;44.472;-123.352;2023-02-28T05:31:24;98631.00;;;0.15;100.00
64551;BME280;50945;44.472;-123.352;2023-02-28T05:33:50;98645.66;;;0.21;98.71
64551;BME280;50945;44.472;-123.352;2023-02-28T05:36:17;98636.44;;;0.23;97.58
64551;BME280;50945;44.472;-123.352;2023-02-28T05:38:48;98652.06;;;0.28;99.73
64551;BME280;50945;44.472;-123.352;2023-02-28T05:41:19;98663.34;;;0.31;97.94
64551;BME280;50945;44.472;-123.352;2023-02-28T05:43:46;98666.72;;;0.33;98.00
64551;BME280;50945;44.472;-123.352;2023-02-28T05:46:14;98675.63;;;0.34;97.47
64551;BME280;50945;44.472;-123.352;2023-02-28T05:48:42;98691.41;;;0.37;97.64
64551;BME280;50945;44.472;-123.352;2023-02-28T05:51:08;98712.47;;;0.42;99.75
64551;BME280;50945;44.472;-123.352;2023-02-28T05:53:35;98738.16;;;0.44;99.41
64551;BME280;50945;44.472;-123.352;2023-02-28T05:56:04;98742.25;;;0.48;98.54
64551;BME280;50945;44.472;-123.352;2023-02-28T05:58:31;98744.59;;;0.51;97.98
64551;BME280;50945;44.472;-123.352;2023-02-28T06:00:58;98753.38;;;0.53;97.51
64551;BME280;50945;44.472;-123.352;2023-02-28T06:03:24;98772.88;;;0.55;99.53
64551;BME280;50945;44.472;-123.352;2023-02-28T06:05:51;98765.50;;;0.57;98.39
64551;BME280;50945;44.472;-123.352;2023-02-28T06:08:17;98775.75;;;0.62;97.46
64551;BME280;50945;44.472;-123.352;2023-02-28T06:10:44;98769.22;;;0.65;97.83
64551;BME280;50945;44.472;-123.352;2023-02-28T06:13:11;98781.03;;;0.72;98.43
64551;BME280;50945;44.472;-123.352;2023-02-28T06:15:38;98784.91;;;0.78;97.93
64551;BME280;50945;44.472;-123.352;2023-02-28T06:18:05;98791.34;;;0.85;99.80
64551;BME280;50945;44.472;-123.352;2023-02-28T06:20:31;98789.00;;;0.90;99.62
64551;BME280;50945;44.472;-123.352;2023-02-28T06:22:58;98795.06;;;0.92;99.83
64551;BME280;50945;44.472;-123.352;2023-02-28T06:25:25;98796.63;;;0.94;100.00
64551;BME280;50945;44.472;-123.352;2023-02-28T06:27:52;98798.97;;;0.98;100.00
64551;BME280;50945;44.472;-123.352;2023-02-28T06:30:19;98805.06;;;1.00;99.55
64551;BME280;50945;44.472;-123.352;2023-02-28T06:32:49;98810.09;;;1.03;99.72
64551;BME280;50945;44.472;-123.352;2023-02-28T06:35:15;98826.75;;;1.06;98.59
64551;BME280;50945;44.472;-123.352;2023-02-28T06:37:42;98831.00;;;1.09;98.54
64551;BME280;50945;44.472;-123.352;2023-02-28T06:40:09;98824.28;;;1.13;100.00
64551;BME280;50945;44.472;-123.352;2023-02-28T06:42:38;98834.56;;;1.18;99.49
64551;BME280;50945;44.472;-123.352;2023-02-28T06:45:04;98836.75;;;1.22;98.47
64551;BME280;50945;44.472;-123.352;2023-02-28T06:47:36;98846.38;;;1.25;98.56
64551;BME280;50945;44.472;-123.352;2023-02-28T06:50:03;98851.59;;;1.26;99.17
64551;BME280;50945;44.472;-123.352;2023-02-28T06:52:32;98850.41;;;1.29;98.27
64551;BME280;50945;44.472;-123.352;2023-02-28T06:55:02;98848.41;;;1.31;98.08
64551;BME280;50945;44.472;-123.352;2023-02-28T06:57:30;98848.91;;;1.35;97.56
64551;BME280;50945;44.472;-123.352;2023-02-28T07:00:00;98854.16;;;1.36;96.43
64551;BME280;50945;44.472;-123.352;2023-02-28T07:02:27;98855.84;;;1.37;97.81
64551;BME280;50945;44.472;-123.352;2023-02-28T07:04:54;98864.59;;;1.39;98.43
64551;BME280;50945;44.472;-123.352;2023-02-28T07:07:20;98873.34;;;1.41;97.67
64551;BME280;50945;44.472;-123.352;2023-02-28T07:09:47;98878.59;;;1.43;97.53
64551;BME280;50945;44.472;-123.352;2023-02-28T07:12:13;98870.34;;;1.44;97.33
64551;BME280;50945;44.472;-123.352;2023-02-28T07:14:39;98890.72;;;1.47;97.95
64551;BME280;50945;44.472;-123.352;2023-02-28T07:17:09;98896.78;;;1.49;96.91
64551;BME280;50945;44.472;-123.352;2023-02-28T07:19:39;98909.91;;;1.52;97.87
64551;BME280;50945;44.472;-123.352;2023-02-28T07:22:05;98911.63;;;1.53;98.21
64551;BME280;50945;44.472;-123.352;2023-02-28T07:24:32;98919.53;;;1.55;97.55
64551;BME280;50945;44.472;-123.352;2023-02-28T07:26:58;98920.53;;;1.54;100.00
64551;BME280;50945;44.472;-123.352;2023-02-28T07:29:25;98914.78;;;1.48;99.51
64551;BME280;50945;44.472;-123.352;2023-02-28T07:31:51;98919.19;;;1.49;99.29
64551;BME280;50945;44.472;-123.352;2023-02-28T07:34:19;98926.09;;;1.52;99.32
64551;BME280;50945;44.472;-123.352;2023-02-28T07:36:47;98925.59;;;1.57;99.45
64551;BME280;50945;44.472;-123.352;2023-02-28T07:39:13;98913.34;;;1.62;99.57
64551;BME280;50945;44.472;-123.352;2023-02-28T07:41:40;98883.53;;;1.64;99.00
64551;BME280;50945;44.472;-123.352;2023-02-28T07:44:12;98896.16;;;1.63;97.90
64551;BME280;50945;44.472;-123.352;2023-02-28T07:46:38;98898.84;;;1.63;97.77
64551;BME280;50945;44.472;-123.352;2023-02-28T07:49:06;98902.56;;;1.62;97.97
64551;BME280;50945;44.472;-123.352;2023-02-28T07:51:32;98905.56;;;1.59;96.67
64551;BME280;50945;44.472;-123.352;2023-02-28T07:53:58;98923.75;;;1.57;97.22
64551;BME280;50945;44.472;-123.352;2023-02-28T07:56:25;98934.69;;;1.56;97.55
64551;BME280;50945;44.472;-123.352;2023-02-28T07:58:51;98951.69;;;1.56;97.07
64551;BME280;50945;44.472;-123.352;2023-02-28T08:01:17;98957.25;;;1.55;97.29
64551;BME280;50945;44.472;-123.352;2023-02-28T08:03:45;98970.88;;;1.53;97.86
64551;BME280;50945;44.472;-123.352;2023-02-28T08:06:17;98972.72;;;1.52;97.80
64551;BME280;50945;44.472;-123.352;2023-02-28T08:08:44;98975.41;;;1.52;98.05
64551;BME280;50945;44.472;-123.352;2023-02-28T08:11:10;98961.94;;;1.52;98.12
64551;BME280;50945;44.472;-123.352;2023-02-28T08:13:36;98971.72;;;1.54;98.36
64551;BME280;50945;44.472;-123.352;2023-02-28T08:16:03;98976.09;;;1.55;97.56
64551;BME280;50945;44.472;-123.352;2023-02-28T08:18:30;98983.16;;;1.56;97.43
64551;BME280;50945;44.472;-123.352;2023-02-28T08:20:56;98987.56;;;1.57;97.13
64551;BME280;50945;44.472;-123.352;2023-02-28T08:23:23;98985.25;;;1.62;96.97
64551;BME280;50945;44.472;-123.352;2023-02-28T08:25:56;98986.91;;;1.63;97.09
64551;BME280;50945;44.472;-123.352;2023-02-28T08:28:22;98993.13;;;1.63;97.16
64551;BME280;50945;44.472;-123.352;2023-02-28T08:30:49;98990.44;;;1.63;96.76
64551;BME280;50945;44.472;-123.352;2023-02-28T08:33:15;98994.84;;;1.64;97.18
64551;BME280;50945;44.472;-123.352;2023-02-28T08:35:41;98988.59;;;1.64;97.59
64551;BME280;50945;44.472;-123.352;2023-02-28T08:38:08;98988.59;;;1.64;97.14
64551;BME280;50945;44.472;-123.352;2023-02-28T08:40:34;98978.81;;;1.63;97.01
64551;BME280;50945;44.472;-123.352;2023-02-28T08:43:00;98979.13;;;1.60;97.37
64551;BME280;50945;44.472;-123.352;2023-02-28T08:45:26;98984.19;;;1.55;97.42
64551;BME280;50945;44.472;-123.352;2023-02-28T08:47:54;98982.28;;;1.47;97.17
64551;BME280;50945;44.472;-123.352;2023-02-28T08:50:21;98983.91;;;1.40;97.20
64551;BME280;50945;44.472;-123.352;2023-02-28T08:52:48;98989.09;;;1.33;97.59
64551;BME280;50945;44.472;-123.352;2023-02-28T08:55:14;98997.13;;;1.25;97.94
64551;BME280;50945;44.472;-123.352;2023-02-28T08:57:41;99000.44;;;1.19;97.66
64551;BME280;50945;44.472;-123.352;2023-02-28T09:00:09;98999.22;;;1.13;97.19
64551;BME280;50945;44.472;-123.352;2023-02-28T09:02:40;99004.25;;;1.08;97.48
64551;BME280;50945;44.472;-123.352;2023-02-28T09:05:08;99011.78;;;1.04;97.47
64551;BME280;50945;44.472;-123.352;2023-02-28T09:07:35;99013.94;;;1.01;97.46
64551;BME280;50945;44.472;-123.352;2023-02-28T09:10:01;99012.41;;;0.98;97.91
64551;BME280;50945;44.472;-123.352;2023-02-28T09:12:33;99026.88;;;0.97;97.80
64551;BME280;50945;44.472;-123.352;2023-02-28T09:15:02;99025.00;;;0.98;97.02
64551;BME280;50945;44.472;-123.352;2023-02-28T09:17:28;99030.56;;;0.96;97.33
64551;BME280;50945;44.472;-123.352;2023-02-28T09:19:55;99026.19;;;0.95;98.14
64551;BME280;50945;44.472;-123.352;2023-02-28T09:22:21;99032.72;;;0.92;97.57
64551;BME280;50945;44.472;-123.352;2023-02-28T09:24:47;99049.03;;;0.91;98.31
64551;BME280;50945;44.472;-123.352;2023-02-28T09:27:14;99050.84;;;0.90;98.24
64551;BME280;50945;44.472;-123.352;2023-02-28T09:29:40;99056.22;;;0.90;99.89
64551;BME280;50945;44.472;-123.352;2023-02-28T09:32:06;99056.22;;;0.90;99.29
64551;BME280;50945;44.472;-123.352;2023-02-28T09:34:32;99056.75;;;0.94;100.00
64551;BME280;50945;44.472;-123.352;2023-02-28T09:36:59;99053.94;;;0.95;98.91
64551;BME280;50945;44.472;-123.352;2023-02-28T09:39:25;99059.16;;;0.97;98.72
64551;BME280;50945;44.472;-123.352;2023-02-28T09:41:53;99049.06;;;0.99;99.06
64551;BME280;50945;44.472;-123.352;2023-02-28T09:44:43;99038.16;;;1.01;98.61
64551;BME280;50945;44.472;-123.352;2023-02-28T09:49:53;99042.72;;;1.00;99.16
64551;BME280;50945;44.472;-123.352;2023-02-28T09:52:25;99039.19;;;1.00;99.11
64551;BME280;50945;44.472;-123.352;2023-02-28T09:54:54;99032.09;;;0.99;98.77
64551;BME280;50945;44.472;-123.352;2023-02-28T10:00:13;99027.00;;;0.95;98.67
64551;BME280;50945;44.472;-123.352;2023-02-28T10:03:15;99026.19;;;0.95;99.31
64551;BME280;50945;44.472;-123.352;2023-02-28T10:06:02;99022.66;;;0.94;98.82
64551;BME280;50945;44.472;-123.352;2023-02-28T10:08:37;99030.72;;;0.94;98.36
64551;BME280;50945;44.472;-123.352;2023-02-28T10:11:12;99021.25;;;0.90;98.48
64551;BME280;50945;44.472;-123.352;2023-02-28T10:16:25;99020.88;;;0.85;98.60
64551;BME280;50945;44.472;-123.352;2023-02-28T10:19:04;99015.97;;;0.81;98.14
64551;BME280;50945;44.472;-123.352;2023-02-28T10:21:39;99024.34;;;0.78;98.54
64551;BME280;50945;44.472;-123.352;2023-02-28T10:29:43;99026.78;;;0.71;98.70
64551;BME280;50945;44.472;-123.352;2023-02-28T10:32:22;99039.56;;;0.69;98.67
64551;BME280;50945;44.472;-123.352;2023-02-28T10:35:17;99042.25;;;0.69;99.54
64551;BME280;50945;44.472;-123.352;2023-02-28T10:37:45;99044.63;;;0.72;99.77
64551;BME280;50945;44.472;-123.352;2023-02-28T10:45:34;99007.50;;;0.75;98.87
64551;BME280;50945;44.472;-123.352;2023-02-28T10:48:26;99003.84;;;0.77;98.98
64551;BME280;50945;44.472;-123.352;2023-02-28T10:50:53;98990.06;;;0.80;98.82
64551;BME280;50945;44.472;-123.352;2023-02-28T10:56:03;98986.06;;;0.84;98.13
64551;BME280;50945;44.472;-123.352;2023-02-28T11:00:59;98989.22;;;0.79;97.80
64551;BME280;50945;44.472;-123.352;2023-02-28T11:03:35;98981.44;;;0.76;98.79
64551;BME280;50945;44.472;-123.352;2023-02-28T11:06:07;98978.22;;;0.72;98.00
64551;BME280;50945;44.472;-123.352;2023-02-28T11:08:34;98985.63;;;0.70;98.81
64551;BME280;50945;44.472;-123.352;2023-02-28T11:11:04;98988.44;;;0.69;98.16
64551;BME280;50945;44.472;-123.352;2023-02-28T11:13:34;98989.47;;;0.68;99.10
64551;BME280;50945;44.472;-123.352;2023-02-28T11:16:05;98982.38;;;0.67;98.99
64551;BME280;50945;44.472;-123.352;2023-02-28T11:21:03;98963.72;;;0.65;99.19
64551;BME280;50945;44.472;-123.352;2023-02-28T11:23:32;98956.31;;;0.67;98.41
64551;BME280;50945;44.472;-123.352;2023-02-28T11:26:02;98951.66;;;0.69;98.63
64551;BME280;50945;44.472;-123.352;2023-02-28T11:28:39;98959.53;;;0.71;98.76
64551;BME280;50945;44.472;-123.352;2023-02-28T11:36:26;98951.19;;;0.74;99.56
64551;BME280;50945;44.472;-123.352;2023-02-28T11:39:00;98943.09;;;0.74;99.51
64551;BME280;50945;44.472;-123.352;2023-02-28T11:41:58;98940.25;;;0.75;100.00
64551;BME280;50945;44.472;-123.352;2023-02-28T11:52:48;98931.66;;;0.72;98.24
64551;BME280;50945;44.472;-123.352;2023-02-28T12:01:29;98921.19;;;0.69;98.97
64551;BME280;50945;44.472;-123.352;2023-02-28T12:09:53;98908.25;;;0.64;99.32
64551;BME280;50945;44.472;-123.352;2023-02-28T12:12:43;98905.19;;;0.59;99.27
64551;BME280;50945;44.472;-123.352;2023-02-28T12:26:01;98876.00;;;0.28;99.37
64551;BME280;50945;44.472;-123.352;2023-02-28T12:28:34;98887.25;;;0.24;99.29
64551;BME280;50945;44.472;-123.352;2023-02-28T12:34:33;98867.66;;;0.13;99.87
64551;BME280;50945;44.472;-123.352;2023-02-28T12:37:17;98865.41;;;0.09;99.69
64551;BME280;50945;44.472;-123.352;2023-02-28T12:39:51;98866.72;;;0.05;99.68
64551;BME280;50945;44.472;-123.352;2023-02-28T12:42:49;98865.50;;;-0.01;100.00
64551;BME280;50945;44.472;-123.352;2023-02-28T12:45:22;98870.50;;;-0.06;99.83
64551;BME280;50945;44.472;-123.352;2023-02-28T12:48:01;98861.06;;;-0.10;100.00
64551;BME280;50945;44.472;-123.352;2023-02-28T12:50:29;98857.84;;;-0.14;100.00
64551;BME280;50945;44.472;-123.352;2023-02-28T12:53:04;98855.44;;;-0.17;99.77
64551;BME280;50945;44.472;-123.352;2023-02-28T12:55:55;98845.88;;;-0.20;100.00
64551;BME280;50945;44.472;-123.352;2023-02-28T12:59:10;98847.97;;;-0.23;100.00
64551;BME280;50945;44.472;-123.352;2023-02-28T13:10:47;98846.06;;;-0.31;100.00
64551;BME280;50945;44.472;-123.352;2023-02-28T13:13:28;98842.69;;;-0.33;100.00
64551;BME280;50945;44.472;-123.352;2023-02-28T13:16:05;98834.78;;;-0.34;100.00
64551;BME280;50945;44.472;-123.352;2023-02-28T13:18:37;98840.31;;;-0.36;100.00
64551;BME280;50945;44.472;-123.352;2023-02-28T13:21:07;98838.63;;;-0.37;100.00
64551;BME280;50945;44.472;-123.352;2023-02-28T13:24:01;98826.03;;;-0.36;100.00
64551;BME280;50945;44.472;-123.352;2023-02-28T13:28:58;98830.44;;;-0.35;100.00
64551;BME280;50945;44.472;-123.352;2023-02-28T13:31:25;98826.03;;;-0.36;100.00
64551;BME280;50945;44.472;-123.352;2023-02-28T13:36:27;98822.38;;;-0.35;100.00
64551;BME280;50945;44.472;-123.352;2023-02-28T13:39:00;98826.03;;;-0.36;100.00
64551;BME280;50945;44.472;-123.352;2023-02-28T13:41:41;98825.22;;;-0.37;100.00
64551;BME280;50945;44.472;-123.352;2023-02-28T13:44:25;98827.91;;;-0.37;100.00
64551;BME280;50945;44.472;-123.352;2023-02-28T13:49:25;98820.69;;;-0.36;100.00
64551;BME280;50945;44.472;-123.352;2023-02-28T14:03:36;98817.00;;;-0.35;100.00
64551;BME280;50945;44.472;-123.352;2023-02-28T14:06:26;98819.69;;;-0.35;100.00
64551;BME280;50945;44.472;-123.352;2023-02-28T14:11:41;98810.63;;;-0.34;100.00
64551;BME280;50945;44.472;-123.352;2023-02-28T14:14:10;98815.84;;;-0.33;100.00
64551;BME280;50945;44.472;-123.352;2023-02-28T14:16:55;98817.69;;;-0.33;100.00
64551;BME280;50945;44.472;-123.352;2023-02-28T14:19:34;98817.69;;;-0.33;100.00
64551;BME280;50945;44.472;-123.352;2023-02-28T14:22:08;98822.06;;;-0.32;100.00
64551;BME280;50945;44.472;-123.352;2023-02-28T14:28:18;98828.09;;;-0.30;100.00
64551;BME280;50945;44.472;-123.352;2023-02-28T14:36:26;98832.50;;;-0.29;100.00
64551;BME280;50945;44.472;-123.352;2023-02-28T14:38:59;98828.81;;;-0.28;100.00
64551;BME280;50945;44.472;-123.352;2023-02-28T14:41:35;98828.66;;;-0.27;100.00
64551;BME280;50945;44.472;-123.352;2023-02-28T14:44:25;98825.97;;;-0.27;100.00
64551;BME280;50945;44.472;-123.352;2023-02-28T14:46:56;98822.28;;;-0.26;100.00
64551;BME280;50945;44.472;-123.352;2023-02-28T14:49:44;98829.19;;;-0.23;100.00
64551;BME280;50945;44.472;-123.352;2023-02-28T14:52:17;98822.97;;;-0.24;100.00
64551;BME280;50945;44.472;-123.352;2023-02-28T14:54:46;98816.47;;;-0.21;100.00
64551;BME280;50945;44.472;-123.352;2023-02-28T14:57:28;98813.63;;;-0.20;100.00
64551;BME280;50945;44.472;-123.352;2023-02-28T15:00:11;98807.25;;;-0.18;100.00
64551;BME280;50945;44.472;-123.352;2023-02-28T15:02:40;98803.56;;;-0.17;100.00
64551;BME280;50945;44.472;-123.352;2023-02-28T15:05:20;98807.94;;;-0.16;100.00
64551;BME280;50945;44.472;-123.352;2023-02-28T15:08:05;98808.09;;;-0.18;100.00
64551;BME280;50945;44.472;-123.352;2023-02-28T15:10:31;98805.25;;;-0.16;100.00
64551;BME280;50945;44.472;-123.352;2023-02-28T15:13:01;98813.84;;;-0.13;100.00
64551;BME280;50945;44.472;-123.352;2023-02-28T15:15:56;98816.22;;;-0.10;100.00
64551;BME280;50945;44.472;-123.352;2023-02-28T15:21:13;98820.63;;;-0.09;100.00
64551;BME280;50945;44.472;-123.352;2023-02-28T15:23:44;98818.75;;;-0.08;100.00
64551;BME280;50945;44.472;-123.352;2023-02-28T15:26:20;98826.69;;;-0.07;100.00